sensor_id;sensor_type;location;lat;lon;timestamp;temperature;humidity
3684;DHT22;1858;48.716;9.648;2023-12-28T00:02:30;2.30;1.00
3684;DHT22;1858;48.716;9.648;2023-12-28T00:05:16;2.30;1.00
3684;DHT22;1858;48.716;9.648;2023-12-28T00:08:03;2.20;1.00
3684;DHT22;1858;48.716;9.648;2023-12-28T00:11:09;2.20;1.00
3684;DHT22;1858;48.716;9.648;2023-12-28T00:13:55;2.20;1.00
3684;DHT22;1858;48.716;9.648;2023-12-28T00:16:41;2.30;1.00
3684;DHT22;1858;48.716;9.648;2023-12-28T00:19:27;2.20;1.00
3684;DHT22;1858;48.716;9.648;2023-12-28T00:22:14;2.20;1.00
3684;DHT22;1858;48.716;9.648;2023-12-28T00:25:00;2.20;1.00
3684;DHT22;1858;48.716;9.648;2023-12-28T00:27:46;2.20;1.00
3684;DHT22;1858;48.716;9.648;2023-12-28T00:30:32;2.20;1.00
3684;DHT22;1858;48.716;9.648;2023-12-28T00:33:19;2.30;1.00
3684;DHT22;1858;48.716;9.648;2023-12-28T00:36:24;2.20;1.00
3684;DHT22;1858;48.716;9.648;2023-12-28T00:39:10;2.20;1.00
3684;DHT22;1858;48.716;9.648;2023-12-28T00:41:57;2.20;1.00
3684;DHT22;1858;48.716;9.648;2023-12-28T00:44:43;2.30;1.00
3684;DHT22;1858;48.716;9.648;2023-12-28T00:47:29;2.20;1.00
3684;DHT22;1858;48.716;9.648;2023-12-28T00:50:15;2.20;1.00
3684;DHT22;1858;48.716;9.648;2023-12-28T00:53:02;2.20;1.00
3684;DHT22;1858;48.716;9.648;2023-12-28T00:55:48;2.20;1.00
3684;DHT22;1858;48.716;9.648;2023-12-28T00:58:34;2.20;1.00
3684;DHT22;1858;48.716;9.648;2023-12-28T01:01:21;2.10;1.00
3684;DHT22;1858;48.716;9.648;2023-12-28T01:04:07;2.10;1.00
3684;DHT22;1858;48.716;9.648;2023-12-28T01:06:54;2.10;1.00
3684;DHT22;1858;48.716;9.648;2023-12-28T01:09:40;2.10;1.00
3684;DHT22;1858;48.716;9.648;2023-12-28T01:12:26;2.00;1.00
3684;DHT22;1858;48.716;9.648;2023-12-28T01:15:13;1.90;1.00
3684;DHT22;1858;48.716;9.648;2023-12-28T01:17:59;1.90;1.00
3684;DHT22;1858;48.716;9.648;2023-12-28T01:20:45;2.00;1.00
3684;DHT22;1858;48.716;9.648;2023-12-28T01:23:32;1.90;1.00
3684;DHT22;1858;48.716;9.648;2023-12-28T01:26:19;2.00;1.00
3684;DHT22;1858;48.716;9.648;2023-12-28T01:29:05;1.90;1.00
3684;DHT22;1858;48.716;9.648;2023-12-28T01:31:51;1.80;1.00
3684;DHT22;1858;48.716;9.648;2023-12-28T01:34:37;1.80;1.00
3684;DHT22;1858;48.716;9.648;2023-12-28T01:37:27;1.80;1.00
3684;DHT22;1858;48.716;9.648;2023-12-28T01:40:15;1.90;1.00
3684;DHT22;1858;48.716;9.648;2023-12-28T01:43:02;1.80;1.00
3684;DHT22;1858;48.716;9.648;2023-12-28T01:45:48;1.80;1.00
3684;DHT22;1858;48.716;9.648;2023-12-28T01:48:35;1.70;1.00
3684;DHT22;1858;48.716;9.648;2023-12-28T01:51:21;1.80;27.50
3684;DHT22;1858;48.716;9.648;2023-12-28T01:54:10;1.80;1.00
3684;DHT22;1858;48.716;9.648;2023-12-28T01:56:56;1.70;1.00
3684;DHT22;1858;48.716;9.648;2023-12-28T01:59:43;1.70;1.00
3684;DHT22;1858;48.716;9.648;2023-12-28T02:02:31;1.60;1.00
3684;DHT22;1858;48.716;9.648;2023-12-28T02:05:18;1.60;1.00
3684;DHT22;1858;48.716;9.648;2023-12-28T02:08:05;1.50;1.00
3684;DHT22;1858;48.716;9.648;2023-12-28T02:10:52;1.50;1.00
3684;DHT22;1858;48.716;9.648;2023-12-28T02:13:40;1.70;1.00
3684;DHT22;1858;48.716;9.648;2023-12-28T02:16:29;1.60;1.00
3684;DHT22;1858;48.716;9.648;2023-12-28T02:22:28;1.60;1.00
3684;DHT22;1858;48.716;9.648;2023-12-28T02:25:15;1.50;1.00
3684;DHT22;1858;48.716;9.648;2023-12-28T02:28:01;1.50;1.00
3684;DHT22;1858;48.716;9.648;2023-12-28T02:30:48;1.40;1.00
3684;DHT22;1858;48.716;9.648;2023-12-28T02:33:48;1.50;1.00
3684;DHT22;1858;48.716;9.648;2023-12-28T02:36:34;1.50;1.00
3684;DHT22;1858;48.716;9.648;2023-12-28T02:39:23;1.50;1.00
3684;DHT22;1858;48.716;9.648;2023-12-28T02:42:10;1.40;1.00
3684;DHT22;1858;48.716;9.648;2023-12-28T02:44:56;1.40;1.00
3684;DHT22;1858;48.716;9.648;2023-12-28T02:47:42;1.40;1.00
3684;DHT22;1858;48.716;9.648;2023-12-28T02:50:29;1.50;1.00
3684;DHT22;1858;48.716;9.648;2023-12-28T02:53:15;1.40;1.00
3684;DHT22;1858;48.716;9.648;2023-12-28T02:56:02;1.40;1.00
3684;DHT22;1858;48.716;9.648;2023-12-28T02:58:48;1.40;1.00
3684;DHT22;1858;48.716;9.648;2023-12-28T03:01:35;1.40;1.00
3684;DHT22;1858;48.716;9.648;2023-12-28T03:04:21;1.40;1.00
3684;DHT22;1858;48.716;9.648;2023-12-28T03:07:08;1.60;2.70
3684;DHT22;1858;48.716;9.648;2023-12-28T03:09:55;1.50;1.00
3684;DHT22;1858;48.716;9.648;2023-12-28T03:12:41;1.50;1.00
3684;DHT22;1858;48.716;9.648;2023-12-28T03:15:28;1.50;1.00
3684;DHT22;1858;48.716;9.648;2023-12-28T03:18:14;1.50;1.00
3684;DHT22;1858;48.716;9.648;2023-12-28T03:21:00;1.50;1.00
3684;DHT22;1858;48.716;9.648;2023-12-28T03:23:46;1.50;1.00
3684;DHT22;1858;48.716;9.648;2023-12-28T03:26:37;1.60;1.00
3684;DHT22;1858;48.716;9.648;2023-12-28T03:29:21;1.60;1.00
3684;DHT22;1858;48.716;9.648;2023-12-28T03:32:07;1.60;1.00
3684;DHT22;1858;48.716;9.648;2023-12-28T03:34:54;1.50;1.00
3684;DHT22;1858;48.716;9.648;2023-12-28T03:37:40;1.50;1.00
3684;DHT22;1858;48.716;9.648;2023-12-28T03:40:27;1.60;1.00
3684;DHT22;1858;48.716;9.648;2023-12-28T03:43:13;1.60;1.00
3684;DHT22;1858;48.716;9.648;2023-12-28T03:45:59;1.60;1.00
3684;DHT22;1858;48.716;9.648;2023-12-28T03:48:47;1.60;1.00
3684;DHT22;1858;48.716;9.648;2023-12-28T03:51:33;1.60;1.00
3684;DHT22;1858;48.716;9.648;2023-12-28T03:54:20;1.60;1.00
3684;DHT22;1858;48.716;9.648;2023-12-28T03:57:06;1.60;1.00
3684;DHT22;1858;48.716;9.648;2023-12-28T04:05:48;1.60;1.00
3684;DHT22;1858;48.716;9.648;2023-12-28T04:08:54;1.60;1.00
3684;DHT22;1858;48.716;9.648;2023-12-28T04:11:41;1.70;1.00
3684;DHT22;1858;48.716;9.648;2023-12-28T04:14:27;1.70;1.00
3684;DHT22;1858;48.716;9.648;2023-12-28T04:17:16;1.70;1.00
3684;DHT22;1858;48.716;9.648;2023-12-28T04:20:01;1.70;1.00
3684;DHT22;1858;48.716;9.648;2023-12-28T04:22:49;1.70;1.00
3684;DHT22;1858;48.716;9.648;2023-12-28T04:25:35;1.60;1.00
3684;DHT22;1858;48.716;9.648;2023-12-28T04:28:21;1.70;1.00
3684;DHT22;1858;48.716;9.648;2023-12-28T04:31:08;1.70;1.00
3684;DHT22;1858;48.716;9.648;2023-12-28T04:33:54;1.70;10.20
3684;DHT22;1858;48.716;9.648;2023-12-28T04:36:41;1.70;6.80
3684;DHT22;1858;48.716;9.648;2023-12-28T04:39:28;1.80;11.90
3684;DHT22;1858;48.716;9.648;2023-12-28T04:42:14;1.80;1.00
3684;DHT22;1858;48.716;9.648;2023-12-28T04:45:01;1.90;1.00
3684;DHT22;1858;48.716;9.648;2023-12-28T04:47:47;1.90;1.00
3684;DHT22;1858;48.716;9.648;2023-12-28T04:50:33;1.90;1.00
3684;DHT22;1858;48.716;9.648;2023-12-28T04:53:19;1.90;1.00
3684;DHT22;1858;48.716;9.648;2023-12-28T04:56:06;1.90;1.00
3684;DHT22;1858;48.716;9.648;2023-12-28T04:58:52;2.00;1.00
3684;DHT22;1858;48.716;9.648;2023-12-28T05:01:45;2.00;1.00
3684;DHT22;1858;48.716;9.648;2023-12-28T05:04:31;1.90;1.00
3684;DHT22;1858;48.716;9.648;2023-12-28T05:07:17;2.00;1.00
3684;DHT22;1858;48.716;9.648;2023-12-28T05:10:04;2.20;1.00
3684;DHT22;1858;48.716;9.648;2023-12-28T05:12:51;2.30;1.00
3684;DHT22;1858;48.716;9.648;2023-12-28T05:15:37;2.40;1.00
3684;DHT22;1858;48.716;9.648;2023-12-28T05:18:23;2.50;1.00
3684;DHT22;1858;48.716;9.648;2023-12-28T05:21:12;2.50;1.00
3684;DHT22;1858;48.716;9.648;2023-12-28T05:23:59;2.70;1.00
3684;DHT22;1858;48.716;9.648;2023-12-28T05:26:45;2.80;1.00
3684;DHT22;1858;48.716;9.648;2023-12-28T05:29:32;2.90;1.00
3684;DHT22;1858;48.716;9.648;2023-12-28T05:32:18;3.00;1.00
3684;DHT22;1858;48.716;9.648;2023-12-28T05:35:05;3.20;1.00
3684;DHT22;1858;48.716;9.648;2023-12-28T05:37:52;3.20;1.00
3684;DHT22;1858;48.716;9.648;2023-12-28T05:40:39;3.30;1.00
3684;DHT22;1858;48.716;9.648;2023-12-28T05:43:26;3.30;1.00
3684;DHT22;1858;48.716;9.648;2023-12-28T05:46:13;3.50;1.00
3684;DHT22;1858;48.716;9.648;2023-12-28T05:48:59;3.60;1.00
3684;DHT22;1858;48.716;9.648;2023-12-28T05:51:45;3.60;99.90
3684;DHT22;1858;48.716;9.648;2023-12-28T05:54:32;3.70;99.90
3684;DHT22;1858;48.716;9.648;2023-12-28T05:57:18;3.70;99.90
3684;DHT22;1858;48.716;9.648;2023-12-28T06:00:05;3.80;99.90
3684;DHT22;1858;48.716;9.648;2023-12-28T06:02:51;4.00;99.90
3684;DHT22;1858;48.716;9.648;2023-12-28T06:05:38;4.00;99.90
3684;DHT22;1858;48.716;9.648;2023-12-28T06:08:24;4.10;99.90
3684;DHT22;1858;48.716;9.648;2023-12-28T06:11:11;4.20;99.90
3684;DHT22;1858;48.716;9.648;2023-12-28T06:13:57;4.30;99.90
3684;DHT22;1858;48.716;9.648;2023-12-28T06:16:43;4.30;99.90
3684;DHT22;1858;48.716;9.648;2023-12-28T06:19:29;4.40;99.90
3684;DHT22;1858;48.716;9.648;2023-12-28T06:22:16;4.50;99.90
3684;DHT22;1858;48.716;9.648;2023-12-28T06:25:02;4.60;99.90
3684;DHT22;1858;48.716;9.648;2023-12-28T06:27:50;4.70;99.90
3684;DHT22;1858;48.716;9.648;2023-12-28T06:30:36;4.80;99.90
3684;DHT22;1858;48.716;9.648;2023-12-28T06:33:22;4.80;99.90
3684;DHT22;1858;48.716;9.648;2023-12-28T06:36:09;4.90;99.90
3684;DHT22;1858;48.716;9.648;2023-12-28T06:38:56;4.90;99.90
3684;DHT22;1858;48.716;9.648;2023-12-28T06:41:42;5.00;99.90
3684;DHT22;1858;48.716;9.648;2023-12-28T06:44:30;5.10;99.90
3684;DHT22;1858;48.716;9.648;2023-12-28T06:47:16;5.10;99.90
3684;DHT22;1858;48.716;9.648;2023-12-28T06:50:03;5.20;99.90
3684;DHT22;1858;48.716;9.648;2023-12-28T06:52:49;5.30;99.90
3684;DHT22;1858;48.716;9.648;2023-12-28T06:55:35;5.50;99.90
3684;DHT22;1858;48.716;9.648;2023-12-28T06:58:22;5.50;99.90
3684;DHT22;1858;48.716;9.648;2023-12-28T07:01:08;5.60;99.90
3684;DHT22;1858;48.716;9.648;2023-12-28T07:03:54;5.60;99.90
3684;DHT22;1858;48.716;9.648;2023-12-28T07:06:40;5.70;99.90
3684;DHT22;1858;48.716;9.648;2023-12-28T07:09:27;5.80;99.90
3684;DHT22;1858;48.716;9.648;2023-12-28T07:12:13;5.90;99.90
3684;DHT22;1858;48.716;9.648;2023-12-28T07:15:00;5.90;99.90
3684;DHT22;1858;48.716;9.648;2023-12-28T07:17:46;5.80;99.90
3684;DHT22;1858;48.716;9.648;2023-12-28T07:20:33;5.80;99.90
3684;DHT22;1858;48.716;9.648;2023-12-28T07:23:19;5.80;99.90
3684;DHT22;1858;48.716;9.648;2023-12-28T07:26:05;5.90;99.90
3684;DHT22;1858;48.716;9.648;2023-12-28T07:28:52;6.00;99.90
3684;DHT22;1858;48.716;9.648;2023-12-28T07:31:39;6.10;99.90
3684;DHT22;1858;48.716;9.648;2023-12-28T07:34:25;6.20;99.90
3684;DHT22;1858;48.716;9.648;2023-12-28T07:37:13;6.30;99.90
3684;DHT22;1858;48.716;9.648;2023-12-28T07:39:59;6.40;99.90
3684;DHT22;1858;48.716;9.648;2023-12-28T07:42:45;6.50;99.90
3684;DHT22;1858;48.716;9.648;2023-12-28T07:45:32;6.50;99.90
3684;DHT22;1858;48.716;9.648;2023-12-28T07:48:18;6.50;99.90
3684;DHT22;1858;48.716;9.648;2023-12-28T07:51:05;6.60;99.90
3684;DHT22;1858;48.716;9.648;2023-12-28T07:53:52;6.70;99.90
3684;DHT22;1858;48.716;9.648;2023-12-28T07:56:38;6.70;99.90
3684;DHT22;1858;48.716;9.648;2023-12-28T07:59:25;6.70;99.90
3684;DHT22;1858;48.716;9.648;2023-12-28T08:02:12;6.70;99.90
3684;DHT22;1858;48.716;9.648;2023-12-28T08:04:58;6.70;99.90
3684;DHT22;1858;48.716;9.648;2023-12-28T08:07:45;6.80;99.90
3684;DHT22;1858;48.716;9.648;2023-12-28T08:10:36;6.80;99.90
3684;DHT22;1858;48.716;9.648;2023-12-28T08:13:22;6.80;99.90
3684;DHT22;1858;48.716;9.648;2023-12-28T08:16:08;6.90;99.90
3684;DHT22;1858;48.716;9.648;2023-12-28T08:18:54;6.90;99.90
3684;DHT22;1858;48.716;9.648;2023-12-28T08:21:41;6.90;99.90
3684;DHT22;1858;48.716;9.648;2023-12-28T08:24:27;6.90;99.90
3684;DHT22;1858;48.716;9.648;2023-12-28T08:27:13;6.90;99.90
3684;DHT22;1858;48.716;9.648;2023-12-28T08:30:00;6.90;99.90
3684;DHT22;1858;48.716;9.648;2023-12-28T08:32:46;7.00;99.90
3684;DHT22;1858;48.716;9.648;2023-12-28T08:35:33;7.00;99.90
3684;DHT22;1858;48.716;9.648;2023-12-28T08:38:19;7.10;99.90
3684;DHT22;1858;48.716;9.648;2023-12-28T08:41:06;7.10;99.90
3684;DHT22;1858;48.716;9.648;2023-12-28T08:43:54;7.10;99.90
3684;DHT22;1858;48.716;9.648;2023-12-28T08:46:40;7.10;99.90
3684;DHT22;1858;48.716;9.648;2023-12-28T08:49:27;7.10;99.90
3684;DHT22;1858;48.716;9.648;2023-12-28T08:52:14;7.20;99.90
3684;DHT22;1858;48.716;9.648;2023-12-28T08:55:00;7.10;99.90
3684;DHT22;1858;48.716;9.648;2023-12-28T08:58:06;7.20;99.90
3684;DHT22;1858;48.716;9.648;2023-12-28T09:00:52;7.30;99.90
3684;DHT22;1858;48.716;9.648;2023-12-28T09:03:39;7.40;99.90
3684;DHT22;1858;48.716;9.648;2023-12-28T09:06:25;7.50;99.90
3684;DHT22;1858;48.716;9.648;2023-12-28T09:09:12;7.50;99.90
3684;DHT22;1858;48.716;9.648;2023-12-28T09:11:58;7.70;99.90
3684;DHT22;1858;48.716;9.648;2023-12-28T09:15:04;7.70;99.90
3684;DHT22;1858;48.716;9.648;2023-12-28T09:17:51;7.70;99.90
3684;DHT22;1858;48.716;9.648;2023-12-28T09:20:37;7.70;99.90
3684;DHT22;1858;48.716;9.648;2023-12-28T09:23:23;7.80;99.90
3684;DHT22;1858;48.716;9.648;2023-12-28T09:26:10;7.80;99.90
3684;DHT22;1858;48.716;9.648;2023-12-28T09:28:56;8.00;99.90
3684;DHT22;1858;48.716;9.648;2023-12-28T09:31:42;8.10;99.90
3684;DHT22;1858;48.716;9.648;2023-12-28T09:34:29;8.20;99.90
3684;DHT22;1858;48.716;9.648;2023-12-28T09:37:15;8.30;99.90
3684;DHT22;1858;48.716;9.648;2023-12-28T09:40:01;8.40;99.90
3684;DHT22;1858;48.716;9.648;2023-12-28T09:45:55;8.60;63.40
3684;DHT22;1858;48.716;9.648;2023-12-28T09:48:42;8.80;77.40
3684;DHT22;1858;48.716;9.648;2023-12-28T09:51:29;8.80;62.60
3684;DHT22;1858;48.716;9.648;2023-12-28T09:57:11;8.90;35.20
3684;DHT22;1858;48.716;9.648;2023-12-28T09:59:59;9.00;35.60
3684;DHT22;1858;48.716;9.648;2023-12-28T10:02:46;9.10;31.50
3684;DHT22;1858;48.716;9.648;2023-12-28T10:05:36;9.20;53.30
3684;DHT22;1858;48.716;9.648;2023-12-28T10:08:22;9.30;58.70
3684;DHT22;1858;48.716;9.648;2023-12-28T10:11:09;9.30;66.20
3684;DHT22;1858;48.716;9.648;2023-12-28T10:13:55;9.30;64.40
3684;DHT22;1858;48.716;9.648;2023-12-28T10:16:43;9.20;62.40
3684;DHT22;1858;48.716;9.648;2023-12-28T10:19:29;9.30;62.60
3684;DHT22;1858;48.716;9.648;2023-12-28T10:22:15;9.20;69.40
3684;DHT22;1858;48.716;9.648;2023-12-28T10:25:03;9.30;74.00
3684;DHT22;1858;48.716;9.648;2023-12-28T10:27:53;9.30;70.70
3684;DHT22;1858;48.716;9.648;2023-12-28T10:30:40;9.30;74.60
3684;DHT22;1858;48.716;9.648;2023-12-28T10:33:26;9.50;75.20
3684;DHT22;1858;48.716;9.648;2023-12-28T10:36:14;9.50;82.50
3684;DHT22;1858;48.716;9.648;2023-12-28T10:39:02;9.60;93.10
3684;DHT22;1858;48.716;9.648;2023-12-28T10:41:51;9.60;99.90
3684;DHT22;1858;48.716;9.648;2023-12-28T10:44:41;9.70;99.90
3684;DHT22;1858;48.716;9.648;2023-12-28T10:47:29;9.80;99.90
3684;DHT22;1858;48.716;9.648;2023-12-28T10:50:16;9.80;99.90
3684;DHT22;1858;48.716;9.648;2023-12-28T10:56:19;9.90;83.00
3684;DHT22;1858;48.716;9.648;2023-12-28T10:59:23;9.90;76.70
3684;DHT22;1858;48.716;9.648;2023-12-28T11:02:10;10.00;67.40
3684;DHT22;1858;48.716;9.648;2023-12-28T11:04:57;10.10;62.80
3684;DHT22;1858;48.716;9.648;2023-12-28T11:07:46;10.20;62.60
3684;DHT22;1858;48.716;9.648;2023-12-28T11:10:33;10.30;70.20
3684;DHT22;1858;48.716;9.648;2023-12-28T11:13:23;10.40;99.90
3684;DHT22;1858;48.716;9.648;2023-12-28T11:16:11;10.50;88.70
3684;DHT22;1858;48.716;9.648;2023-12-28T11:18:58;10.70;62.40
3684;DHT22;1858;48.716;9.648;2023-12-28T11:21:45;10.80;44.70
3684;DHT22;1858;48.716;9.648;2023-12-28T11:24:32;10.80;54.90
3684;DHT22;1858;48.716;9.648;2023-12-28T11:27:18;11.00;52.70
3684;DHT22;1858;48.716;9.648;2023-12-28T11:30:05;11.10;38.20
3684;DHT22;1858;48.716;9.648;2023-12-28T11:35:59;11.40;21.50
3684;DHT22;1858;48.716;9.648;2023-12-28T11:38:45;11.50;21.90
3684;DHT22;1858;48.716;9.648;2023-12-28T11:41:32;11.70;11.30
3684;DHT22;1858;48.716;9.648;2023-12-28T11:44:19;11.90;3.30
3684;DHT22;1858;48.716;9.648;2023-12-28T11:47:26;12.10;1.00
3684;DHT22;1858;48.716;9.648;2023-12-28T11:50:13;12.30;1.00
3684;DHT22;1858;48.716;9.648;2023-12-28T11:52:59;12.40;1.00
3684;DHT22;1858;48.716;9.648;2023-12-28T11:55:45;12.60;1.00
3684;DHT22;1858;48.716;9.648;2023-12-28T11:58:32;12.60;1.00
3684;DHT22;1858;48.716;9.648;2023-12-28T12:01:21;12.70;1.00
3684;DHT22;1858;48.716;9.648;2023-12-28T12:04:07;12.70;1.00
3684;DHT22;1858;48.716;9.648;2023-12-28T12:06:54;12.70;1.00
3684;DHT22;1858;48.716;9.648;2023-12-28T12:09:40;12.60;1.00
3684;DHT22;1858;48.716;9.648;2023-12-28T12:12:26;12.60;1.00
3684;DHT22;1858;48.716;9.648;2023-12-28T12:15:13;12.60;1.00
3684;DHT22;1858;48.716;9.648;2023-12-28T12:18:03;12.60;1.00
3684;DHT22;1858;48.716;9.648;2023-12-28T12:20:50;12.60;1.00
3684;DHT22;1858;48.716;9.648;2023-12-28T12:23:37;12.60;1.00
3684;DHT22;1858;48.716;9.648;2023-12-28T12:26:25;12.60;1.00
3684;DHT22;1858;48.716;9.648;2023-12-28T12:29:12;12.50;1.00
3684;DHT22;1858;48.716;9.648;2023-12-28T12:32:00;12.50;1.00
3684;DHT22;1858;48.716;9.648;2023-12-28T12:34:49;12.50;1.00
3684;DHT22;1858;48.716;9.648;2023-12-28T12:37:36;12.40;1.00
3684;DHT22;1858;48.716;9.648;2023-12-28T12:40:23;12.40;1.00
3684;DHT22;1858;48.716;9.648;2023-12-28T12:43:10;12.40;1.00
3684;DHT22;1858;48.716;9.648;2023-12-28T12:45:56;12.40;1.00
3684;DHT22;1858;48.716;9.648;2023-12-28T12:48:53;12.30;1.00
3684;DHT22;1858;48.716;9.648;2023-12-28T12:51:32;12.30;1.00
3684;DHT22;1858;48.716;9.648;2023-12-28T12:54:18;12.30;1.00
3684;DHT22;1858;48.716;9.648;2023-12-28T12:57:06;12.30;1.00
3684;DHT22;1858;48.716;9.648;2023-12-28T12:59:52;12.30;1.00
3684;DHT22;1858;48.716;9.648;2023-12-28T13:02:39;12.30;1.00
3684;DHT22;1858;48.716;9.648;2023-12-28T13:05:25;12.20;1.00
3684;DHT22;1858;48.716;9.648;2023-12-28T13:08:11;12.10;1.00
3684;DHT22;1858;48.716;9.648;2023-12-28T13:11:17;12.10;1.00
3684;DHT22;1858;48.716;9.648;2023-12-28T13:14:05;12.00;1.00
3684;DHT22;1858;48.716;9.648;2023-12-28T13:16:52;11.90;1.00
3684;DHT22;1858;48.716;9.648;2023-12-28T13:19:39;11.90;1.00
3684;DHT22;1858;48.716;9.648;2023-12-28T13:22:26;11.90;1.00
3684;DHT22;1858;48.716;9.648;2023-12-28T13:25:12;11.80;1.00
3684;DHT22;1858;48.716;9.648;2023-12-28T13:27:58;11.80;1.00
3684;DHT22;1858;48.716;9.648;2023-12-28T13:30:45;11.80;13.80
3684;DHT22;1858;48.716;9.648;2023-12-28T13:33:31;11.70;16.20
3684;DHT22;1858;48.716;9.648;2023-12-28T13:36:18;11.80;15.60
3684;DHT22;1858;48.716;9.648;2023-12-28T13:39:05;11.70;11.40
3684;DHT22;1858;48.716;9.648;2023-12-28T13:41:51;11.70;16.10
3684;DHT22;1858;48.716;9.648;2023-12-28T13:44:37;11.70;21.80
3684;DHT22;1858;48.716;9.648;2023-12-28T13:47:23;11.70;42.30
3684;DHT22;1858;48.716;9.648;2023-12-28T13:50:10;11.80;56.50
3684;DHT22;1858;48.716;9.648;2023-12-28T13:52:56;11.70;48.40
3684;DHT22;1858;48.716;9.648;2023-12-28T13:55:43;11.70;63.40
3684;DHT22;1858;48.716;9.648;2023-12-28T13:58:29;11.70;91.50
3684;DHT22;1858;48.716;9.648;2023-12-28T14:01:15;11.70;99.90
3684;DHT22;1858;48.716;9.648;2023-12-28T14:04:02;11.60;97.40
3684;DHT22;1858;48.716;9.648;2023-12-28T14:06:49;11.60;99.90
3684;DHT22;1858;48.716;9.648;2023-12-28T14:09:39;11.60;99.90
3684;DHT22;1858;48.716;9.648;2023-12-28T14:12:26;11.60;99.90
3684;DHT22;1858;48.716;9.648;2023-12-28T14:15:12;11.50;99.90
3684;DHT22;1858;48.716;9.648;2023-12-28T14:18:00;11.40;99.90
3684;DHT22;1858;48.716;9.648;2023-12-28T14:20:48;11.40;99.90
3684;DHT22;1858;48.716;9.648;2023-12-28T14:23:35;11.30;99.90
3684;DHT22;1858;48.716;9.648;2023-12-28T14:26:22;11.20;99.90
3684;DHT22;1858;48.716;9.648;2023-12-28T14:29:09;11.30;99.90
3684;DHT22;1858;48.716;9.648;2023-12-28T14:32:15;11.20;99.90
3684;DHT22;1858;48.716;9.648;2023-12-28T14:35:01;11.20;99.90
3684;DHT22;1858;48.716;9.648;2023-12-28T14:37:48;11.20;1.00
3684;DHT22;1858;48.716;9.648;2023-12-28T14:40:36;11.20;1.00
3684;DHT22;1858;48.716;9.648;2023-12-28T14:43:22;11.20;1.00
3684;DHT22;1858;48.716;9.648;2023-12-28T14:46:08;11.10;1.00
3684;DHT22;1858;48.716;9.648;2023-12-28T14:48:55;11.00;1.00
3684;DHT22;1858;48.716;9.648;2023-12-28T14:51:41;11.00;1.00
3684;DHT22;1858;48.716;9.648;2023-12-28T14:54:28;10.90;1.00
3684;DHT22;1858;48.716;9.648;2023-12-28T14:57:14;10.80;12.60
3684;DHT22;1858;48.716;9.648;2023-12-28T15:00:01;10.80;86.00
3684;DHT22;1858;48.716;9.648;2023-12-28T15:02:47;10.80;99.90
3684;DHT22;1858;48.716;9.648;2023-12-28T15:05:33;10.70;99.90
3684;DHT22;1858;48.716;9.648;2023-12-28T15:08:21;10.70;99.90
3684;DHT22;1858;48.716;9.648;2023-12-28T15:11:08;10.60;99.90
3684;DHT22;1858;48.716;9.648;2023-12-28T15:13:56;10.60;99.90
3684;DHT22;1858;48.716;9.648;2023-12-28T15:16:42;10.60;99.90
3684;DHT22;1858;48.716;9.648;2023-12-28T15:19:29;10.50;99.90
3684;DHT22;1858;48.716;9.648;2023-12-28T15:22:16;10.50;99.90
3684;DHT22;1858;48.716;9.648;2023-12-28T15:25:03;10.40;99.90
3684;DHT22;1858;48.716;9.648;2023-12-28T15:27:51;10.40;99.90
3684;DHT22;1858;48.716;9.648;2023-12-28T15:33:55;10.30;99.90
3684;DHT22;1858;48.716;9.648;2023-12-28T15:36:42;10.20;99.90
3684;DHT22;1858;48.716;9.648;2023-12-28T15:39:28;10.20;99.90
3684;DHT22;1858;48.716;9.648;2023-12-28T15:42:15;10.10;1.00
3684;DHT22;1858;48.716;9.648;2023-12-28T15:45:02;10.10;1.00
3684;DHT22;1858;48.716;9.648;2023-12-28T15:47:48;10.10;1.00
3684;DHT22;1858;48.716;9.648;2023-12-28T15:50:55;10.10;1.00
3684;DHT22;1858;48.716;9.648;2023-12-28T15:53:41;10.00;1.00
3684;DHT22;1858;48.716;9.648;2023-12-28T15:56:28;10.00;1.00
3684;DHT22;1858;48.716;9.648;2023-12-28T15:59:14;10.00;1.00
3684;DHT22;1858;48.716;9.648;2023-12-28T16:02:00;10.00;1.00
3684;DHT22;1858;48.716;9.648;2023-12-28T16:04:46;10.00;1.00
3684;DHT22;1858;48.716;9.648;2023-12-28T16:07:33;10.00;1.00
3684;DHT22;1858;48.716;9.648;2023-12-28T16:10:20;10.00;1.00
3684;DHT22;1858;48.716;9.648;2023-12-28T16:13:07;10.00;1.00
3684;DHT22;1858;48.716;9.648;2023-12-28T16:15:53;10.00;1.00
3684;DHT22;1858;48.716;9.648;2023-12-28T16:18:40;10.00;1.00
3684;DHT22;1858;48.716;9.648;2023-12-28T16:21:29;9.90;1.00
3684;DHT22;1858;48.716;9.648;2023-12-28T16:24:16;9.90;1.00
3684;DHT22;1858;48.716;9.648;2023-12-28T16:27:03;9.80;1.70
3684;DHT22;1858;48.716;9.648;2023-12-28T16:29:49;9.90;53.60
3684;DHT22;1858;48.716;9.648;2023-12-28T16:32:35;9.90;82.60
3684;DHT22;1858;48.716;9.648;2023-12-28T16:35:22;9.90;99.90
3684;DHT22;1858;48.716;9.648;2023-12-28T16:38:09;9.90;20.40
3684;DHT22;1858;48.716;9.648;2023-12-28T16:40:55;10.00;23.90
3684;DHT22;1858;48.716;9.648;2023-12-28T16:44:01;9.90;27.90
3684;DHT22;1858;48.716;9.648;2023-12-28T16:46:48;9.90;99.90
3684;DHT22;1858;48.716;9.648;2023-12-28T16:49:35;9.90;87.60
3684;DHT22;1858;48.716;9.648;2023-12-28T16:52:21;9.90;1.00
3684;DHT22;1858;48.716;9.648;2023-12-28T16:55:08;9.80;1.00
3684;DHT22;1858;48.716;9.648;2023-12-28T16:57:55;9.70;1.00
3684;DHT22;1858;48.716;9.648;2023-12-28T17:00:43;9.60;1.00
3684;DHT22;1858;48.716;9.648;2023-12-28T17:03:29;9.50;1.00
3684;DHT22;1858;48.716;9.648;2023-12-28T17:06:15;9.40;3.30
3684;DHT22;1858;48.716;9.648;2023-12-28T17:09:22;9.50;41.40
3684;DHT22;1858;48.716;9.648;2023-12-28T17:12:13;9.40;1.00
3684;DHT22;1858;48.716;9.648;2023-12-28T17:14:58;9.40;1.00
3684;DHT22;1858;48.716;9.648;2023-12-28T17:17:44;9.50;1.00
3684;DHT22;1858;48.716;9.648;2023-12-28T17:20:31;9.40;1.00
3684;DHT22;1858;48.716;9.648;2023-12-28T17:26:30;9.70;1.00
3684;DHT22;1858;48.716;9.648;2023-12-28T17:29:19;9.80;1.00
3684;DHT22;1858;48.716;9.648;2023-12-28T17:32:07;9.80;99.90
3684;DHT22;1858;48.716;9.648;2023-12-28T17:34:56;9.70;99.90
3684;DHT22;1858;48.716;9.648;2023-12-28T17:37:42;9.80;99.90
3684;DHT22;1858;48.716;9.648;2023-12-28T17:40:30;9.80;99.90
3684;DHT22;1858;48.716;9.648;2023-12-28T17:43:22;9.80;1.00
3684;DHT22;1858;48.716;9.648;2023-12-28T17:52:22;9.90;1.00
3684;DHT22;1858;48.716;9.648;2023-12-28T17:55:10;9.90;1.00
3684;DHT22;1858;48.716;9.648;2023-12-28T17:57:56;9.90;1.00
3684;DHT22;1858;48.716;9.648;2023-12-28T18:00:43;9.90;1.00
3684;DHT22;1858;48.716;9.648;2023-12-28T18:03:29;9.90;1.00
3684;DHT22;1858;48.716;9.648;2023-12-28T18:06:16;9.80;1.00
3684;DHT22;1858;48.716;9.648;2023-12-28T18:09:02;9.80;1.00
3684;DHT22;1858;48.716;9.648;2023-12-28T18:11:50;9.70;1.00
3684;DHT22;1858;48.716;9.648;2023-12-28T18:14:36;9.70;1.00
3684;DHT22;1858;48.716;9.648;2023-12-28T18:17:42;9.60;1.00
3684;DHT22;1858;48.716;9.648;2023-12-28T18:20:28;9.60;1.00
3684;DHT22;1858;48.716;9.648;2023-12-28T18:23:14;9.60;1.00
3684;DHT22;1858;48.716;9.648;2023-12-28T18:26:00;9.60;1.00
3684;DHT22;1858;48.716;9.648;2023-12-28T18:28:47;9.60;1.00
3684;DHT22;1858;48.716;9.648;2023-12-28T18:31:33;9.60;1.00
3684;DHT22;1858;48.716;9.648;2023-12-28T18:34:19;9.60;1.00
3684;DHT22;1858;48.716;9.648;2023-12-28T18:37:06;9.60;1.00
3684;DHT22;1858;48.716;9.648;2023-12-28T18:39:52;9.60;1.00
3684;DHT22;1858;48.716;9.648;2023-12-28T18:42:38;9.60;1.00
3684;DHT22;1858;48.716;9.648;2023-12-28T18:45:29;9.60;1.00
3684;DHT22;1858;48.716;9.648;2023-12-28T18:48:15;9.60;1.00
3684;DHT22;1858;48.716;9.648;2023-12-28T18:51:02;9.60;1.00
3684;DHT22;1858;48.716;9.648;2023-12-28T18:53:49;9.60;99.90
3684;DHT22;1858;48.716;9.648;2023-12-28T18:56:35;9.60;99.90
3684;DHT22;1858;48.716;9.648;2023-12-28T18:59:22;9.60;1.00
3684;DHT22;1858;48.716;9.648;2023-12-28T19:02:09;9.60;1.00
3684;DHT22;1858;48.716;9.648;2023-12-28T19:04:56;9.60;1.00
3684;DHT22;1858;48.716;9.648;2023-12-28T19:07:42;9.60;1.00
3684;DHT22;1858;48.716;9.648;2023-12-28T19:10:28;9.60;1.00